createdAt,value
2022-09-12T00:01:28.040Z,13.49
2022-09-12T00:03:30.760Z,13.44
2022-09-12T00:05:34.925Z,13.47
2022-09-12T00:07:37.620Z,13.49
2022-09-12T00:09:40.565Z,13.47
2022-09-12T00:11:45.705Z,13.37
2022-09-12T00:13:49.125Z,13.24
2022-09-12T00:15:51.866Z,13.27
2022-09-12T00:17:54.562Z,13.32
2022-09-12T00:19:57.296Z,13.38
2022-09-12T00:22:01.515Z,13.34
2022-09-12T00:24:04.519Z,13.42
2022-09-12T00:26:07.901Z,13.16
2022-09-12T00:28:10.637Z,13.35
2022-09-12T00:30:13.673Z,13.33
2022-09-12T00:32:16.385Z,13.29
2022-09-12T00:34:19.131Z,13.30
2022-09-12T00:36:24.580Z,13.33
2022-09-12T00:38:28.658Z,12.70
2022-09-12T00:40:31.408Z,12.97
2022-09-12T00:42:34.085Z,12.97
2022-09-12T00:44:46.357Z,12.93
2022-09-12T00:46:51.686Z,12.94
2022-09-12T00:48:59.185Z,12.72
2022-09-12T00:51:03.029Z,11.89
2022-09-12T00:53:08.970Z,12.72
2022-09-12T00:55:16.749Z,12.54
2022-09-12T00:57:21.848Z,12.68
2022-09-12T00:59:28.703Z,12.82
2022-09-12T01:01:32.738Z,12.85
2022-09-12T01:03:36.023Z,12.87
2022-09-12T01:05:44.405Z,12.88
2022-09-12T01:07:48.921Z,12.12
2022-09-12T01:09:51.739Z,12.83
2022-09-12T01:11:56.307Z,12.84
2022-09-12T01:13:59.045Z,12.80
2022-09-12T01:16:04.799Z,12.84
2022-09-12T01:18:18.989Z,12.87
2022-09-12T01:20:45.363Z,11.98
2022-09-12T01:23:09.193Z,12.87
2022-09-12T01:25:25.603Z,12.87
2022-09-12T01:28:02.790Z,12.84
2022-09-12T01:30:44.099Z,12.81
2022-09-12T01:33:00.553Z,12.77
2022-09-12T01:35:16.573Z,12.69
2022-09-12T01:37:31.560Z,12.75
2022-09-12T01:39:41.520Z,12.79
2022-09-12T01:41:53.842Z,12.82
2022-09-12T01:44:06.794Z,12.78
2022-09-12T01:46:17.409Z,11.85
2022-09-12T01:48:25.755Z,12.68
2022-09-12T01:50:32.241Z,12.70
2022-09-12T01:52:40.022Z,12.67
2022-09-12T01:54:49.344Z,12.64
2022-09-12T01:56:56.683Z,12.56
2022-09-12T01:59:05.576Z,12.10
2022-09-12T02:01:15.716Z,12.50
2022-09-12T02:03:24.065Z,10.61
2022-09-12T02:05:32.421Z,12.40
2022-09-12T02:07:39.890Z,12.40
2022-09-12T02:09:47.287Z,12.35
2022-09-12T02:11:53.545Z,12.28
2022-09-12T02:14:02.966Z,12.23
2022-09-12T02:16:10.776Z,12.26
2022-09-12T02:18:18.006Z,12.32
2022-09-12T02:20:46.799Z,8.92
2022-09-12T02:22:54.831Z,12.35
2022-09-12T02:25:01.132Z,12.34
2022-09-12T02:27:08.844Z,12.36
2022-09-12T02:29:11.587Z,12.33
2022-09-12T02:31:22.521Z,12.30
2022-09-12T02:33:31.641Z,12.35
2022-09-12T02:35:43.829Z,12.29
2022-09-12T02:37:56.022Z,12.22
2022-09-12T02:40:00.003Z,12.16
2022-09-12T02:42:03.785Z,12.17
2022-09-12T02:44:07.088Z,12.04
2022-09-12T02:46:14.298Z,11.97
2022-09-12T02:48:22.264Z,9.91
2022-09-12T02:50:25.000Z,11.81
2022-09-12T02:52:30.514Z,11.81
2022-09-12T02:54:33.626Z,11.59
2022-09-12T02:56:37.328Z,11.30
2022-09-12T02:58:40.159Z,11.45
2022-09-12T03:00:49.821Z,11.47
2022-09-12T03:03:16.511Z,11.52
2022-09-12T03:05:25.397Z,11.38
2022-09-12T03:07:44.559Z,11.43
2022-09-12T03:09:58.779Z,11.43
2022-09-12T03:12:14.814Z,11.26
2022-09-12T03:14:32.780Z,10.78
2022-09-12T03:16:44.627Z,11.35
2022-09-12T03:18:56.753Z,11.21
2022-09-12T03:21:03.796Z,11.34
2022-09-12T03:23:18.576Z,11.45
2022-09-12T03:25:26.088Z,11.49
2022-09-12T03:27:32.135Z,10.87
2022-09-12T03:29:35.092Z,11.66
2022-09-12T03:31:39.319Z,10.39
2022-09-12T03:33:42.027Z,9.72
2022-09-12T03:35:45.371Z,11.58
2022-09-12T03:37:49.328Z,9.60
2022-09-12T03:39:53.354Z,11.62
2022-09-12T03:41:56.743Z,11.71
2022-09-12T03:43:59.592Z,11.76
2022-09-12T03:46:02.457Z,11.68
2022-09-12T03:48:06.775Z,11.19
2022-09-12T03:50:10.035Z,11.65
2022-09-12T03:52:12.696Z,11.63
2022-09-12T03:54:15.379Z,8.48
2022-09-12T03:56:19.521Z,11.64
2022-09-12T03:58:22.210Z,11.70
2022-09-12T04:00:25.156Z,11.79
2022-09-12T04:02:27.882Z,11.81
2022-09-12T04:04:30.539Z,11.83
2022-09-12T04:06:33.352Z,11.77
2022-09-12T04:08:36.653Z,11.82
2022-09-12T04:10:39.332Z,11.80
2022-09-12T04:12:43.463Z,10.19
2022-09-12T04:14:46.413Z,11.81
2022-09-12T04:16:49.086Z,11.79
2022-09-12T04:18:51.781Z,11.77
2022-09-12T04:20:55.062Z,11.76
2022-09-12T04:22:57.780Z,11.77
2022-09-12T04:25:00.501Z,11.78
2022-09-12T04:27:07.628Z,11.73
2022-09-12T04:29:12.974Z,11.71
2022-09-12T04:31:20.320Z,10.57
2022-09-12T04:33:23.592Z,11.60
2022-09-12T04:35:26.862Z,11.51
2022-09-12T04:37:29.526Z,11.55
2022-09-12T04:39:32.295Z,10.79
2022-09-12T04:41:36.903Z,11.54
2022-09-12T04:43:39.653Z,11.51
2022-09-12T04:45:43.727Z,11.45
2022-09-12T04:47:47.007Z,11.45
2022-09-12T04:49:51.102Z,10.28
2022-09-12T04:51:54.807Z,11.45
2022-09-12T04:53:59.217Z,11.46
2022-09-12T04:56:03.750Z,11.48
2022-09-12T04:58:06.388Z,11.48
2022-09-12T05:00:13.118Z,11.48
2022-09-12T05:02:17.260Z,11.30
2022-09-12T05:04:19.993Z,11.17
2022-09-12T05:06:25.069Z,10.83
2022-09-12T05:08:27.711Z,11.18
2022-09-12T05:10:31.127Z,11.20
2022-09-12T05:12:33.873Z,11.24
2022-09-12T05:14:36.553Z,11.27
2022-09-12T05:16:39.335Z,11.28
2022-09-12T05:18:44.527Z,11.11
2022-09-12T05:20:47.260Z,11.17
2022-09-12T05:22:49.958Z,11.24
2022-09-12T05:24:52.689Z,11.05
2022-09-12T05:26:55.433Z,10.92
2022-09-12T05:28:58.129Z,11.35
2022-09-12T05:31:02.645Z,11.36
2022-09-12T05:33:05.931Z,11.36
2022-09-12T05:35:11.148Z,11.39
2022-09-12T05:37:13.824Z,11.41
2022-09-12T05:39:16.760Z,11.40
2022-09-12T05:41:24.852Z,11.45
2022-09-12T05:43:27.734Z,11.49
2022-09-12T05:45:31.019Z,11.49
2022-09-12T05:47:33.698Z,10.85
2022-09-12T05:49:36.429Z,11.59
2022-09-12T05:51:42.568Z,11.65
2022-09-12T05:53:45.298Z,11.73
2022-09-12T05:55:47.975Z,11.73
2022-09-12T05:57:50.739Z,11.76
2022-09-12T05:59:53.983Z,11.07
2022-09-12T06:01:56.733Z,10.36
2022-09-12T06:04:01.349Z,11.90
2022-09-12T06:06:05.632Z,11.32
2022-09-12T06:08:09.865Z,12.02
2022-09-12T06:10:12.554Z,12.03
2022-09-12T06:12:15.285Z,11.87
2022-09-12T06:14:19.461Z,11.02
2022-09-12T06:16:25.907Z,11.97
2022-09-12T06:18:28.644Z,12.04
2022-09-12T06:20:31.323Z,12.16
2022-09-12T06:22:34.258Z,11.84
2022-09-12T06:24:38.318Z,12.38
2022-09-12T06:26:41.140Z,12.52
2022-09-12T06:28:45.761Z,12.63
2022-09-12T06:30:48.766Z,12.64
2022-09-12T06:32:51.432Z,12.67
2022-09-12T06:34:54.104Z,11.25
2022-09-12T06:36:57.910Z,12.54
2022-09-12T06:39:02.722Z,12.99
2022-09-12T06:41:07.464Z,13.05
2022-09-12T06:43:10.226Z,13.12
2022-09-12T06:45:16.444Z,13.21
2022-09-12T06:47:19.152Z,10.85
2022-09-12T06:49:21.902Z,13.43
2022-09-12T06:51:24.707Z,13.49
2022-09-12T06:53:28.456Z,12.88
2022-09-12T06:55:31.193Z,13.71
2022-09-12T06:57:36.826Z,13.78
2022-09-12T06:59:39.607Z,13.84
2022-09-12T07:01:42.816Z,13.95
2022-09-12T07:03:49.576Z,14.04
2022-09-12T07:05:52.628Z,14.13
2022-09-12T07:07:55.861Z,14.23
2022-09-12T07:09:58.678Z,12.05
2022-09-12T07:12:04.346Z,14.38
2022-09-12T07:14:10.254Z,13.72
2022-09-12T07:16:18.695Z,14.57
2022-09-12T07:18:23.652Z,14.63
2022-09-12T07:20:26.340Z,14.70
2022-09-12T07:22:29.086Z,14.74
2022-09-12T07:24:31.867Z,14.42
2022-09-12T07:26:34.639Z,14.90
2022-09-12T07:28:38.065Z,15.00
2022-09-12T07:30:42.564Z,14.63
2022-09-12T07:32:45.291Z,15.10
2022-09-12T07:34:48.045Z,13.07
2022-09-12T07:36:50.752Z,14.93
2022-09-12T07:38:57.695Z,15.22
2022-09-12T07:41:01.782Z,15.28
2022-09-12T07:43:04.601Z,15.32
2022-09-12T07:45:08.126Z,15.39
2022-09-12T07:47:12.315Z,15.47
2022-09-12T07:49:15.119Z,15.54
2022-09-12T07:51:18.479Z,15.61
2022-09-12T07:53:21.267Z,14.40
2022-09-12T07:55:23.966Z,15.78
2022-09-12T07:57:26.671Z,15.86
2022-09-12T07:59:51.596Z,15.96
2022-09-12T08:01:52.462Z,15.64
2022-09-12T08:03:58.383Z,16.14
2022-09-12T08:06:05.635Z,16.26
2022-09-12T08:08:08.534Z,15.55
2022-09-12T08:10:11.913Z,16.46
2022-09-12T08:12:14.791Z,16.59
2022-09-12T08:14:18.344Z,16.34
2022-09-12T08:16:22.721Z,16.82
2022-09-12T08:18:25.677Z,16.90
2022-09-12T08:20:30.418Z,17.00
2022-09-12T08:22:33.176Z,17.09
2022-09-12T08:24:35.913Z,17.18
2022-09-12T08:26:39.048Z,17.36
2022-09-12T08:28:45.646Z,17.37
2022-09-12T08:30:48.328Z,17.58
2022-09-12T08:32:51.000Z,17.68
2022-09-12T08:34:53.684Z,17.79
2022-09-12T08:36:57.746Z,17.95
2022-09-12T08:39:02.074Z,18.02
2022-09-12T08:41:10.740Z,18.16
2022-09-12T08:43:30.720Z,18.26
2022-09-12T08:45:39.853Z,18.44
2022-09-12T08:47:46.443Z,18.25
2022-09-12T08:49:58.087Z,18.76
2022-09-12T08:52:08.237Z,18.98
2022-09-12T08:54:19.444Z,19.10
2022-09-12T08:56:22.221Z,19.26
2022-09-12T08:58:27.202Z,19.34
2022-09-12T09:00:41.719Z,19.49
2022-09-12T09:03:18.736Z,19.09
2022-09-12T09:05:27.784Z,19.23
2022-09-12T09:08:01.206Z,19.95
2022-09-12T09:10:20.412Z,20.02
2022-09-12T09:12:29.514Z,20.13
2022-09-12T09:14:49.744Z,20.32
2022-09-12T09:16:54.909Z,20.39
2022-09-12T09:18:59.485Z,20.50
2022-09-12T09:21:09.338Z,20.63
2022-09-12T09:23:21.741Z,20.66
2022-09-12T09:25:27.523Z,20.31
2022-09-12T09:27:41.051Z,21.00
2022-09-12T09:29:48.737Z,21.23
2022-09-12T09:31:55.900Z,21.01
2022-09-12T09:33:58.693Z,20.75
2022-09-12T09:36:09.976Z,20.78
2022-09-12T09:38:24.599Z,21.13
2022-09-12T09:40:37.562Z,21.42
2022-09-12T09:42:45.617Z,21.41
2022-09-12T09:44:49.301Z,21.68
2022-09-12T09:46:56.473Z,21.94
2022-09-12T09:49:03.139Z,21.32
2022-09-12T09:51:09.280Z,22.12
2022-09-12T09:53:25.303Z,22.13
2022-09-12T09:55:35.700Z,22.34
2022-09-12T09:57:46.704Z,22.78
2022-09-12T09:59:49.573Z,22.64
2022-09-12T10:01:54.853Z,22.30
2022-09-12T10:03:58.708Z,23.26
2022-09-12T10:06:03.812Z,23.31
2022-09-12T10:08:08.552Z,23.35
2022-09-12T10:10:18.735Z,21.74
2022-09-12T10:12:28.284Z,22.67
2022-09-12T10:14:37.926Z,23.56
2022-09-12T10:16:52.725Z,22.32
2022-09-12T10:18:57.477Z,23.73
2022-09-12T10:21:01.690Z,24.02
2022-09-12T10:23:24.632Z,22.83
2022-09-12T10:25:29.552Z,24.15
2022-09-12T10:27:34.191Z,24.04
2022-09-12T10:29:50.471Z,24.28
2022-09-12T10:31:55.945Z,24.59
2022-09-12T10:34:00.814Z,24.81
2022-09-12T10:36:04.017Z,25.09
2022-09-12T10:38:08.488Z,25.54
2022-09-12T10:40:24.837Z,25.74
2022-09-12T10:42:48.146Z,25.96
2022-09-12T10:44:55.705Z,25.68
2022-09-12T10:46:59.898Z,25.73
2022-09-12T10:49:24.333Z,25.91
2022-09-12T10:51:29.331Z,24.93
2022-09-12T10:53:41.102Z,25.96
2022-09-12T10:55:58.308Z,25.87
2022-09-12T10:58:13.323Z,25.69
2022-09-12T11:00:18.005Z,26.02
2022-09-12T11:02:29.511Z,26.16
2022-09-12T11:04:47.568Z,25.93
2022-09-12T11:07:10.098Z,26.13
2022-09-12T11:09:22.716Z,25.98
2022-09-12T11:11:41.042Z,26.37
2022-09-12T11:13:57.232Z,26.56
2022-09-12T11:16:11.680Z,26.75
2022-09-12T11:18:31.445Z,27.01
2022-09-12T11:20:47.114Z,27.13
2022-09-12T11:23:07.017Z,27.20
2022-09-12T11:25:21.097Z,26.62
2022-09-12T11:27:36.246Z,27.37
2022-09-12T11:29:50.654Z,27.25
2022-09-12T11:32:25.545Z,25.78
2022-09-12T11:34:36.670Z,26.92
2022-09-12T11:37:07.403Z,27.51
2022-09-12T11:39:35.038Z,27.59
2022-09-12T11:41:41.054Z,27.55
2022-09-12T11:43:49.068Z,28.47
2022-09-12T11:45:54.254Z,28.50
2022-09-12T11:48:03.995Z,27.37
2022-09-12T11:50:21.516Z,27.39
2022-09-12T11:52:25.747Z,28.18
2022-09-12T11:54:34.152Z,28.69
2022-09-12T11:56:42.883Z,28.95
2022-09-12T11:58:51.998Z,28.97
2022-09-12T12:01:00.089Z,29.34
2022-09-12T12:03:10.094Z,29.48
2022-09-12T12:05:21.361Z,29.73
2022-09-12T12:07:24.142Z,29.38
2022-09-12T12:09:26.746Z,29.40
2022-09-12T12:11:33.670Z,28.92
2022-09-12T12:13:39.929Z,28.67
2022-09-12T12:15:48.532Z,29.40
2022-09-12T12:18:04.360Z,29.91
2022-09-12T12:20:09.366Z,29.87
2022-09-12T12:22:21.507Z,28.63
2022-09-12T12:24:26.264Z,29.91
2022-09-12T12:26:57.262Z,30.08
2022-09-12T12:29:01.261Z,30.34
2022-09-12T12:31:04.398Z,30.18
2022-09-12T12:33:51.735Z,29.46
2022-09-12T12:36:07.097Z,29.82
2022-09-12T12:38:29.043Z,30.39
2022-09-12T12:40:33.004Z,29.90
2022-09-12T12:43:17.494Z,30.43
2022-09-12T12:46:02.804Z,29.62
2022-09-12T12:48:10.996Z,29.58
2022-09-12T12:50:23.881Z,29.58
2022-09-12T12:52:31.781Z,29.95
2022-09-12T12:54:53.582Z,30.06
2022-09-12T12:57:17.894Z,30.43
2022-09-12T12:59:24.115Z,29.72
2022-09-12T13:01:27.506Z,30.19
2022-09-12T13:03:33.277Z,29.03
2022-09-12T13:05:42.117Z,31.27
2022-09-12T13:07:48.018Z,31.62
2022-09-12T13:09:54.560Z,30.11
2022-09-12T13:12:01.401Z,30.77
2022-09-12T13:14:07.142Z,31.46
2022-09-12T13:16:10.975Z,30.93
2022-09-12T13:18:19.145Z,31.48
2022-09-12T13:20:28.624Z,30.62
2022-09-12T13:22:42.056Z,32.16
2022-09-12T13:24:48.866Z,32.22
2022-09-12T13:26:51.866Z,32.13
2022-09-12T13:29:17.287Z,31.44
2022-09-12T13:31:25.538Z,32.20
2022-09-12T13:33:36.550Z,32.05
2022-09-12T13:35:50.765Z,32.72
2022-09-12T13:37:58.461Z,31.46
2022-09-12T13:40:14.216Z,31.15
2022-09-12T13:42:42.085Z,31.29
2022-09-12T13:44:48.436Z,30.91
2022-09-12T13:46:52.492Z,30.44
2022-09-12T13:48:55.660Z,30.83
2022-09-12T13:51:01.355Z,30.46
2022-09-12T13:53:07.984Z,31.61
2022-09-12T13:55:26.528Z,32.16
2022-09-12T13:57:34.579Z,32.64
2022-09-12T13:59:41.053Z,32.92
2022-09-12T14:01:45.428Z,32.22
2022-09-12T14:04:09.306Z,32.81
2022-09-12T14:06:12.948Z,32.48
2022-09-12T14:08:16.546Z,33.03
2022-09-12T14:10:27.121Z,32.96
2022-09-12T14:12:35.184Z,32.74
2022-09-12T14:14:44.090Z,33.13
2022-09-12T14:16:47.140Z,33.42
2022-09-12T14:18:51.833Z,33.39
2022-09-12T14:20:57.117Z,33.44
2022-09-12T14:23:03.430Z,33.24
2022-09-12T14:25:08.912Z,33.36
2022-09-12T14:27:13.991Z,32.88
2022-09-12T14:29:18.508Z,33.49
2022-09-12T14:31:24.876Z,32.78
2022-09-12T14:33:27.697Z,33.09
2022-09-12T14:35:32.449Z,31.87
2022-09-12T14:37:35.468Z,33.24
2022-09-12T14:39:42.115Z,32.61
2022-09-12T14:41:46.344Z,33.46
2022-09-12T14:43:54.258Z,33.27
2022-09-12T14:46:00.539Z,33.17
2022-09-12T14:48:04.288Z,33.01
2022-09-12T14:50:17.137Z,32.91
2022-09-12T14:52:29.703Z,31.53
2022-09-12T14:54:39.488Z,32.38
2022-09-12T14:56:45.933Z,33.00
2022-09-12T14:58:50.645Z,33.13
2022-09-12T15:00:59.528Z,33.37
2022-09-12T15:03:25.994Z,33.74
2022-09-12T15:05:29.414Z,32.66
2022-09-12T15:07:34.642Z,33.85
2022-09-12T15:09:37.356Z,33.84
2022-09-12T15:11:40.379Z,33.88
2022-09-12T15:13:43.284Z,33.77
2022-09-12T15:15:49.318Z,34.11
2022-09-12T15:17:52.034Z,33.93
2022-09-12T15:19:54.774Z,34.07
2022-09-12T15:21:57.862Z,34.13
2022-09-12T15:24:00.618Z,33.60
2022-09-12T15:26:04.614Z,34.50
2022-09-12T15:28:17.356Z,34.52
2022-09-12T15:30:20.422Z,34.76
2022-09-12T15:32:29.452Z,34.61
2022-09-12T15:34:32.140Z,34.66
2022-09-12T15:36:34.825Z,34.67
2022-09-12T15:38:37.688Z,34.61
2022-09-12T15:40:40.662Z,34.39
2022-09-12T15:42:43.999Z,34.35
2022-09-12T15:44:46.658Z,34.59
2022-09-12T15:46:49.436Z,34.94
2022-09-12T15:48:53.483Z,35.27
2022-09-12T15:51:01.260Z,35.57
2022-09-12T15:53:03.981Z,35.68
2022-09-12T15:55:12.305Z,35.54
2022-09-12T15:57:15.130Z,35.49
2022-09-12T15:59:17.785Z,35.51
2022-09-12T16:01:20.556Z,35.91
2022-09-12T16:03:25.235Z,35.86
2022-09-12T16:05:29.546Z,35.78
2022-09-12T16:07:32.300Z,35.57
2022-09-12T16:09:34.981Z,35.53
2022-09-12T16:11:37.732Z,35.41
2022-09-12T16:13:40.568Z,35.22
2022-09-12T16:15:43.393Z,35.11
2022-09-12T16:17:46.114Z,35.09
2022-09-12T16:19:48.797Z,34.77
2022-09-12T16:21:52.820Z,35.08
2022-09-12T16:23:55.590Z,34.86
2022-09-12T16:25:58.802Z,34.72
2022-09-12T16:28:01.798Z,33.79
2022-09-12T16:30:05.693Z,34.88
2022-09-12T16:32:08.452Z,34.59
2022-09-12T16:34:11.868Z,34.43
2022-09-12T16:36:16.760Z,34.16
2022-09-12T16:38:20.800Z,33.67
2022-09-12T16:40:23.517Z,33.39
2022-09-12T16:42:26.231Z,33.35
2022-09-12T16:44:28.903Z,33.26
2022-09-12T16:46:31.680Z,32.83
2022-09-12T16:48:34.938Z,26.36
2022-09-12T16:50:37.571Z,31.89
2022-09-12T16:52:40.242Z,32.61
2022-09-12T16:54:45.059Z,32.82
2022-09-12T16:56:48.923Z,33.29
2022-09-12T16:58:51.840Z,32.74
2022-09-12T17:01:00.850Z,33.21
2022-09-12T17:03:03.917Z,33.20
2022-09-12T17:05:07.449Z,33.19
2022-09-12T17:07:10.620Z,32.41
2022-09-12T17:09:18.390Z,33.53
2022-09-12T17:11:25.528Z,33.72
2022-09-12T17:13:46.549Z,33.09
2022-09-12T17:15:51.753Z,31.89
2022-09-12T17:17:54.561Z,31.55
2022-09-12T17:19:57.312Z,30.24
2022-09-12T17:22:00.205Z,28.08
2022-09-12T17:24:03.538Z,27.29
2022-09-12T17:26:07.298Z,28.54
2022-09-12T17:28:11.337Z,27.01
2022-09-12T17:30:14.755Z,27.78
2022-09-12T17:32:17.803Z,27.50
2022-09-12T17:34:20.555Z,26.71
2022-09-12T17:36:23.403Z,26.81
2022-09-12T17:38:26.123Z,26.47
2022-09-12T17:40:55.738Z,26.11
2022-09-12T17:42:51.744Z,25.88
2022-09-12T17:44:58.321Z,25.62
2022-09-12T17:47:01.103Z,25.39
2022-09-12T17:49:06.247Z,25.27
2022-09-12T17:51:09.538Z,24.18
2022-09-12T17:53:13.177Z,24.61
2022-09-12T17:55:16.060Z,23.14
2022-09-12T17:57:18.729Z,24.23
2022-09-12T17:59:24.676Z,23.91
2022-09-12T18:01:47.726Z,23.96
2022-09-12T18:03:50.625Z,22.50
2022-09-12T18:05:55.148Z,23.70
2022-09-12T18:07:57.818Z,23.59
2022-09-12T18:10:00.517Z,23.53
2022-09-12T18:12:03.648Z,23.44
2022-09-12T18:14:06.541Z,23.27
2022-09-12T18:16:11.753Z,23.15
2022-09-12T18:18:16.025Z,22.70
2022-09-12T18:20:18.771Z,21.61
2022-09-12T18:22:21.450Z,23.09
2022-09-12T18:24:24.560Z,23.05
2022-09-12T18:26:28.989Z,21.54
2022-09-12T18:28:33.197Z,22.75
2022-09-12T18:30:35.824Z,22.56
2022-09-12T18:32:38.425Z,22.56
2022-09-12T18:34:42.474Z,22.44
2022-09-12T18:36:46.608Z,22.33
2022-09-12T18:38:49.595Z,22.26
2022-09-12T18:41:02.638Z,22.08
2022-09-12T18:43:05.230Z,21.91
2022-09-12T18:45:09.155Z,21.86
2022-09-12T18:47:11.823Z,21.82
2022-09-12T18:49:14.459Z,21.68
2022-09-12T18:51:20.323Z,21.61
2022-09-12T18:53:22.963Z,21.53
2022-09-12T18:55:25.716Z,20.81
2022-09-12T18:57:30.491Z,21.39
2022-09-12T18:59:33.191Z,20.85
2022-09-12T19:01:38.011Z,21.15
2022-09-12T19:03:41.187Z,20.98
2022-09-12T19:05:43.889Z,20.92
2022-09-12T19:07:48.044Z,20.83
2022-09-12T19:09:50.809Z,20.77
2022-09-12T19:11:53.682Z,20.78
2022-09-12T19:13:57.106Z,20.48
2022-09-12T19:16:01.441Z,20.71
2022-09-12T19:18:04.463Z,20.64
2022-09-12T19:20:07.822Z,19.97
2022-09-12T19:22:10.582Z,20.53
2022-09-12T19:24:16.516Z,20.46
2022-09-12T19:26:20.657Z,20.38
2022-09-12T19:28:23.364Z,20.32
2022-09-12T19:30:26.027Z,20.20
2022-09-12T19:32:30.326Z,19.82
2022-09-12T19:34:33.555Z,16.60
2022-09-12T19:36:45.816Z,19.96
2022-09-12T19:38:49.212Z,19.61
2022-09-12T19:41:00.199Z,19.66
2022-09-12T19:43:03.197Z,19.59
2022-09-12T19:45:06.584Z,19.60
2022-09-12T19:47:09.901Z,19.61
2022-09-12T19:49:13.333Z,19.56
2022-09-12T19:51:17.535Z,19.52
2022-09-12T19:53:20.713Z,19.19
2022-09-12T19:55:23.364Z,18.12
2022-09-12T19:57:27.387Z,18.20
2022-09-12T19:59:30.059Z,18.48
2022-09-12T20:01:33.114Z,19.13
2022-09-12T20:03:35.893Z,19.13
2022-09-12T20:05:42.517Z,19.10
2022-09-12T20:07:45.578Z,18.89
2022-09-12T20:09:48.273Z,18.90
2022-09-12T20:11:51.165Z,18.63
2022-09-12T20:13:55.176Z,18.80
2022-09-12T20:15:57.932Z,18.86
2022-09-12T20:18:00.900Z,18.93
2022-09-12T20:20:03.775Z,18.93
2022-09-12T20:22:07.359Z,18.95
2022-09-12T20:24:13.578Z,18.86
2022-09-12T20:26:16.356Z,18.77
2022-09-12T20:28:19.074Z,18.77
2022-09-12T20:30:23.326Z,18.79
2022-09-12T20:32:28.236Z,18.72
2022-09-12T20:34:31.366Z,18.63
2022-09-12T20:36:34.475Z,17.45
2022-09-12T20:38:37.452Z,17.17
2022-09-12T20:40:40.158Z,18.59
2022-09-12T20:42:42.887Z,18.57
2022-09-12T20:44:45.511Z,18.48
2022-09-12T20:46:49.584Z,18.47
2022-09-12T20:48:53.052Z,18.47
2022-09-12T20:50:59.262Z,18.44
2022-09-12T20:53:01.947Z,18.44
2022-09-12T20:55:05.097Z,18.43
2022-09-12T20:57:07.745Z,18.37
2022-09-12T20:59:12.357Z,18.01
2022-09-12T21:01:16.561Z,17.92
2022-09-12T21:03:20.608Z,18.22
2022-09-12T21:05:23.324Z,18.21
2022-09-12T21:07:25.954Z,18.07
2022-09-12T21:09:28.637Z,17.98
2022-09-12T21:11:31.278Z,17.93
2022-09-12T21:13:34.156Z,17.92
2022-09-12T21:15:37.022Z,17.94
2022-09-12T21:17:39.848Z,18.00
2022-09-12T21:19:43.922Z,17.94
2022-09-12T21:21:46.685Z,17.71
2022-09-12T21:23:50.667Z,16.51
2022-09-12T21:25:53.445Z,17.57
2022-09-12T21:27:56.053Z,17.65
2022-09-12T21:29:59.329Z,17.80
2022-09-12T21:32:02.362Z,17.70
2022-09-12T21:34:05.000Z,17.58
2022-09-12T21:36:10.353Z,17.63
2022-09-12T21:38:12.948Z,17.62
2022-09-12T21:40:15.851Z,17.57
2022-09-12T21:42:18.648Z,17.37
2022-09-12T21:44:21.269Z,16.71
2022-09-12T21:46:23.946Z,17.57
2022-09-12T21:48:27.075Z,17.60
2022-09-12T21:50:29.695Z,17.55
2022-09-12T21:52:33.873Z,17.54
2022-09-12T21:54:36.528Z,17.56
2022-09-12T21:56:39.349Z,17.06
2022-09-12T21:58:42.001Z,17.47
2022-09-12T22:00:44.910Z,17.52
2022-09-12T22:02:48.642Z,17.50
2022-09-12T22:04:51.317Z,17.49
2022-09-12T22:06:53.986Z,17.40
2022-09-12T22:08:58.403Z,17.37
2022-09-12T22:11:02.420Z,17.41
2022-09-12T22:13:05.557Z,17.35
2022-09-12T22:15:29.166Z,17.36
2022-09-12T22:17:31.650Z,17.40
2022-09-12T22:19:34.379Z,17.36
2022-09-12T22:21:57.128Z,17.44
2022-09-12T22:24:18.843Z,17.45
2022-09-12T22:26:21.725Z,17.01
2022-09-12T22:28:25.440Z,17.10
2022-09-12T22:30:28.614Z,17.36
2022-09-12T22:32:31.316Z,17.31
2022-09-12T22:34:34.079Z,17.17
2022-09-12T22:36:39.001Z,16.76
2022-09-12T22:38:41.994Z,17.10
2022-09-12T22:40:46.134Z,17.04
2022-09-12T22:42:48.878Z,16.97
2022-09-12T22:44:51.849Z,16.99
2022-09-12T22:46:54.589Z,16.27
2022-09-12T22:48:57.321Z,16.86
2022-09-12T22:51:00.047Z,16.73
2022-09-12T22:53:02.921Z,16.76
2022-09-12T22:55:06.233Z,16.79
2022-09-12T22:57:10.369Z,16.80
2022-09-12T22:59:13.151Z,16.43
2022-09-12T23:01:16.120Z,16.76
2022-09-12T23:03:19.897Z,16.76
2022-09-12T23:05:22.657Z,16.61
2022-09-12T23:07:26.109Z,16.71
2022-09-12T23:09:32.126Z,16.55
2022-09-12T23:11:37.961Z,16.64
2022-09-12T23:13:43.819Z,16.61
2022-09-12T23:15:46.774Z,16.53
2022-09-12T23:17:49.564Z,16.61
2022-09-12T23:19:52.699Z,16.28
2022-09-12T23:21:55.484Z,15.98
2022-09-12T23:23:58.433Z,16.65
2022-09-12T23:26:05.955Z,13.59
2022-09-12T23:28:08.700Z,16.64
2022-09-12T23:30:13.351Z,16.70
2022-09-12T23:32:16.183Z,16.71
2022-09-12T23:34:19.160Z,16.73
2022-09-12T23:36:22.460Z,16.76
2022-09-12T23:38:25.214Z,16.72
2022-09-12T23:40:27.852Z,16.73
2022-09-12T23:42:30.673Z,16.33
2022-09-12T23:44:33.391Z,16.78
2022-09-12T23:46:37.474Z,16.78
2022-09-12T23:48:40.732Z,16.76
2022-09-12T23:50:45.627Z,15.92
2022-09-12T23:52:48.379Z,16.75
2022-09-12T23:54:51.086Z,15.83
2022-09-12T23:56:53.854Z,16.61
2022-09-12T23:58:56.523Z,16.59
